sensor_id;sensor_type;location;lat;lon;timestamp;P1;durP1;ratioP1;P2;durP2;ratioP2
1775;SDS011;885;42.626;23.200;2023-03-01T00:00:52;9.80;;;7.70;;
1775;SDS011;885;42.626;23.200;2023-03-01T00:03:19;9.13;;;7.70;;
1775;SDS011;885;42.626;23.200;2023-03-01T00:05:46;8.90;;;8.10;;
1775;SDS011;885;42.626;23.200;2023-03-01T00:08:14;9.67;;;8.67;;
1775;SDS011;885;42.626;23.200;2023-03-01T00:10:41;8.57;;;7.73;;
1775;SDS011;885;42.626;23.200;2023-03-01T00:13:08;8.93;;;8.03;;
1775;SDS011;885;42.626;23.200;2023-03-01T00:15:37;9.03;;;8.23;;
1775;SDS011;885;42.626;23.200;2023-03-01T00:18:04;9.00;;;8.10;;
1775;SDS011;885;42.626;23.200;2023-03-01T00:20:31;10.57;;;9.10;;
1775;SDS011;885;42.626;23.200;2023-03-01T00:22:58;10.47;;;9.03;;
1775;SDS011;885;42.626;23.200;2023-03-01T00:25:26;13.17;;;9.20;;
1775;SDS011;885;42.626;23.200;2023-03-01T00:27:53;9.77;;;8.77;;
1775;SDS011;885;42.626;23.200;2023-03-01T00:30:20;9.33;;;8.43;;
1775;SDS011;885;42.626;23.200;2023-03-01T00:32:47;11.43;;;9.77;;
1775;SDS011;885;42.626;23.200;2023-03-01T00:35:13;10.53;;;9.43;;
1775;SDS011;885;42.626;23.200;2023-03-01T00:37:40;12.57;;;9.57;;
1775;SDS011;885;42.626;23.200;2023-03-01T00:40:08;11.53;;;10.40;;
1775;SDS011;885;42.626;23.200;2023-03-01T00:42:37;11.50;;;10.37;;
1775;SDS011;885;42.626;23.200;2023-03-01T00:45:04;12.50;;;10.80;;
1775;SDS011;885;42.626;23.200;2023-03-01T00:47:32;13.07;;;11.67;;
1775;SDS011;885;42.626;23.200;2023-03-01T00:49:59;14.00;;;11.77;;
1775;SDS011;885;42.626;23.200;2023-03-01T00:52:26;13.83;;;12.40;;
1775;SDS011;885;42.626;23.200;2023-03-01T00:54:53;13.33;;;11.97;;
1775;SDS011;885;42.626;23.200;2023-03-01T00:57:20;13.30;;;11.90;;
1775;SDS011;885;42.626;23.200;2023-03-01T00:59:48;14.00;;;12.60;;
1775;SDS011;885;42.626;23.200;2023-03-01T01:02:14;14.13;;;12.33;;
1775;SDS011;885;42.626;23.200;2023-03-01T01:04:41;15.67;;;14.10;;
1775;SDS011;885;42.626;23.200;2023-03-01T01:07:08;17.00;;;15.20;;
1775;SDS011;885;42.626;23.200;2023-03-01T01:09:35;13.13;;;11.77;;
1775;SDS011;885;42.626;23.200;2023-03-01T01:12:02;14.07;;;12.60;;
1775;SDS011;885;42.626;23.200;2023-03-01T01:14:29;13.77;;;12.37;;
1775;SDS011;885;42.626;23.200;2023-03-01T01:16:58;14.43;;;12.93;;
1775;SDS011;885;42.626;23.200;2023-03-01T01:19:24;14.93;;;12.30;;
1775;SDS011;885;42.626;23.200;2023-03-01T01:21:52;15.67;;;13.70;;
1775;SDS011;885;42.626;23.200;2023-03-01T01:24:19;14.63;;;12.83;;
1775;SDS011;885;42.626;23.200;2023-03-01T01:26:45;17.20;;;13.00;;
1775;SDS011;885;42.626;23.200;2023-03-01T01:29:12;18.97;;;14.13;;
1775;SDS011;885;42.626;23.200;2023-03-01T01:31:40;16.40;;;14.70;;
1775;SDS011;885;42.626;23.200;2023-03-01T01:34:18;17.10;;;14.43;;
1775;SDS011;885;42.626;23.200;2023-03-01T01:36:47;17.23;;;14.97;;
1775;SDS011;885;42.626;23.200;2023-03-01T01:39:14;17.97;;;15.50;;
1775;SDS011;885;42.626;23.200;2023-03-01T01:41:41;16.67;;;13.73;;
1775;SDS011;885;42.626;23.200;2023-03-01T01:44:12;18.37;;;14.67;;
1775;SDS011;885;42.626;23.200;2023-03-01T01:46:42;18.57;;;16.07;;
1775;SDS011;885;42.626;23.200;2023-03-01T01:49:17;17.10;;;15.50;;
1775;SDS011;885;42.626;23.200;2023-03-01T01:51:49;17.73;;;15.87;;
1775;SDS011;885;42.626;23.200;2023-03-01T01:54:22;13.17;;;11.87;;
1775;SDS011;885;42.626;23.200;2023-03-01T01:56:56;11.03;;;10.03;;
1775;SDS011;885;42.626;23.200;2023-03-01T01:59:26;11.13;;;10.03;;
1775;SDS011;885;42.626;23.200;2023-03-01T02:01:54;11.93;;;10.83;;
1775;SDS011;885;42.626;23.200;2023-03-01T02:04:25;11.13;;;10.03;;
1775;SDS011;885;42.626;23.200;2023-03-01T02:06:54;11.23;;;10.23;;
1775;SDS011;885;42.626;23.200;2023-03-01T02:09:25;11.23;;;10.23;;
1775;SDS011;885;42.626;23.200;2023-03-01T02:11:53;11.20;;;10.10;;
1775;SDS011;885;42.626;23.200;2023-03-01T02:14:20;12.77;;;11.50;;
1775;SDS011;885;42.626;23.200;2023-03-01T02:16:47;13.50;;;12.23;;
1775;SDS011;885;42.626;23.200;2023-03-01T02:19:17;12.20;;;11.00;;
1775;SDS011;885;42.626;23.200;2023-03-01T02:21:59;12.10;;;11.00;;
1775;SDS011;885;42.626;23.200;2023-03-01T02:24:35;10.90;;;10.00;;
1775;SDS011;885;42.626;23.200;2023-03-01T02:27:11;11.07;;;10.03;;
1775;SDS011;885;42.626;23.200;2023-03-01T02:29:40;10.80;;;9.80;;
1775;SDS011;885;42.626;23.200;2023-03-01T02:32:09;10.57;;;9.67;;
1775;SDS011;885;42.626;23.200;2023-03-01T02:34:37;10.07;;;9.10;;
1775;SDS011;885;42.626;23.200;2023-03-01T02:37:06;8.70;;;7.97;;
1775;SDS011;885;42.626;23.200;2023-03-01T02:39:38;7.97;;;7.27;;
1775;SDS011;885;42.626;23.200;2023-03-01T02:42:09;7.40;;;6.80;;
1775;SDS011;885;42.626;23.200;2023-03-01T02:44:40;6.77;;;6.20;;
1775;SDS011;885;42.626;23.200;2023-03-01T02:47:07;7.23;;;6.63;;
1775;SDS011;885;42.626;23.200;2023-03-01T02:49:34;6.00;;;5.50;;
1775;SDS011;885;42.626;23.200;2023-03-01T02:52:16;6.33;;;5.83;;
1775;SDS011;885;42.626;23.200;2023-03-01T02:54:57;6.90;;;6.30;;
1775;SDS011;885;42.626;23.200;2023-03-01T02:57:27;9.10;;;8.20;;
1775;SDS011;885;42.626;23.200;2023-03-01T02:59:59;19.20;;;15.00;;
1775;SDS011;885;42.626;23.200;2023-03-01T03:02:32;18.57;;;15.83;;
1775;SDS011;885;42.626;23.200;2023-03-01T03:05:03;7.90;;;7.10;;
1775;SDS011;885;42.626;23.200;2023-03-01T03:07:33;7.33;;;6.73;;
1775;SDS011;885;42.626;23.200;2023-03-01T03:10:00;8.50;;;7.73;;
1775;SDS011;885;42.626;23.200;2023-03-01T03:12:27;7.10;;;6.50;;
1775;SDS011;885;42.626;23.200;2023-03-01T03:14:54;6.77;;;6.27;;
1775;SDS011;885;42.626;23.200;2023-03-01T03:17:22;6.40;;;5.90;;
1775;SDS011;885;42.626;23.200;2023-03-01T03:19:49;6.50;;;6.00;;
1775;SDS011;885;42.626;23.200;2023-03-01T03:22:16;7.10;;;6.50;;
1775;SDS011;885;42.626;23.200;2023-03-01T03:24:43;7.63;;;7.03;;
1775;SDS011;885;42.626;23.200;2023-03-01T03:27:09;6.67;;;6.17;;
1775;SDS011;885;42.626;23.200;2023-03-01T03:29:36;7.27;;;6.67;;
1775;SDS011;885;42.626;23.200;2023-03-01T03:32:03;7.07;;;6.40;;
1775;SDS011;885;42.626;23.200;2023-03-01T03:34:31;9.47;;;8.57;;
1775;SDS011;885;42.626;23.200;2023-03-01T03:36:58;9.07;;;8.30;;
1775;SDS011;885;42.626;23.200;2023-03-01T03:39:25;8.90;;;8.00;;
1775;SDS011;885;42.626;23.200;2023-03-01T03:41:53;8.63;;;7.93;;
1775;SDS011;885;42.626;23.200;2023-03-01T03:44:20;7.70;;;7.00;;
1775;SDS011;885;42.626;23.200;2023-03-01T03:46:46;7.07;;;6.47;;
1775;SDS011;885;42.626;23.200;2023-03-01T03:49:13;8.13;;;7.33;;
1775;SDS011;885;42.626;23.200;2023-03-01T03:51:41;7.47;;;6.87;;
1775;SDS011;885;42.626;23.200;2023-03-01T03:54:08;8.10;;;6.83;;
1775;SDS011;885;42.626;23.200;2023-03-01T03:56:36;8.20;;;7.40;;
1775;SDS011;885;42.626;23.200;2023-03-01T03:59:02;8.23;;;7.43;;
1775;SDS011;885;42.626;23.200;2023-03-01T04:01:31;8.43;;;7.73;;
1775;SDS011;885;42.626;23.200;2023-03-01T04:03:57;8.10;;;7.27;;
1775;SDS011;885;42.626;23.200;2023-03-01T04:06:29;8.27;;;7.47;;
1775;SDS011;885;42.626;23.200;2023-03-01T04:08:57;8.20;;;7.50;;
1775;SDS011;885;42.626;23.200;2023-03-01T04:11:25;8.27;;;7.47;;
1775;SDS011;885;42.626;23.200;2023-03-01T04:13:53;10.40;;;9.50;;
1775;SDS011;885;42.626;23.200;2023-03-01T04:16:20;7.53;;;6.83;;
1775;SDS011;885;42.626;23.200;2023-03-01T04:18:48;7.57;;;6.77;;
1775;SDS011;885;42.626;23.200;2023-03-01T04:21:15;8.10;;;7.30;;
1775;SDS011;885;42.626;23.200;2023-03-01T04:23:45;8.17;;;7.30;;
1775;SDS011;885;42.626;23.200;2023-03-01T04:26:13;7.60;;;7.00;;
1775;SDS011;885;42.626;23.200;2023-03-01T04:28:41;7.77;;;7.07;;
1775;SDS011;885;42.626;23.200;2023-03-01T04:31:11;7.40;;;6.70;;
1775;SDS011;885;42.626;23.200;2023-03-01T04:33:42;8.10;;;7.30;;
1775;SDS011;885;42.626;23.200;2023-03-01T04:36:11;7.20;;;6.50;;
1775;SDS011;885;42.626;23.200;2023-03-01T04:38:39;7.30;;;6.43;;
1775;SDS011;885;42.626;23.200;2023-03-01T04:41:07;8.50;;;7.70;;
1775;SDS011;885;42.626;23.200;2023-03-01T04:43:37;8.93;;;7.80;;
1775;SDS011;885;42.626;23.200;2023-03-01T04:46:05;8.57;;;7.77;;
1775;SDS011;885;42.626;23.200;2023-03-01T04:48:34;7.77;;;7.07;;
1775;SDS011;885;42.626;23.200;2023-03-01T04:51:02;8.07;;;7.33;;
1775;SDS011;885;42.626;23.200;2023-03-01T04:53:29;8.40;;;7.60;;
1775;SDS011;885;42.626;23.200;2023-03-01T04:55:57;9.70;;;8.80;;
1775;SDS011;885;42.626;23.200;2023-03-01T04:58:25;9.60;;;8.27;;
1775;SDS011;885;42.626;23.200;2023-03-01T05:00:54;9.23;;;8.43;;
1775;SDS011;885;42.626;23.200;2023-03-01T05:03:21;10.07;;;8.90;;
1775;SDS011;885;42.626;23.200;2023-03-01T05:05:49;8.97;;;8.17;;
1775;SDS011;885;42.626;23.200;2023-03-01T05:08:17;9.17;;;8.27;;
1775;SDS011;885;42.626;23.200;2023-03-01T05:10:44;9.17;;;8.33;;
1775;SDS011;885;42.626;23.200;2023-03-01T05:13:12;8.00;;;7.27;;
1775;SDS011;885;42.626;23.200;2023-03-01T05:15:45;9.87;;;8.87;;
1775;SDS011;885;42.626;23.200;2023-03-01T05:18:14;9.33;;;8.47;;
1775;SDS011;885;42.626;23.200;2023-03-01T05:20:41;10.53;;;9.57;;
1775;SDS011;885;42.626;23.200;2023-03-01T05:23:09;9.93;;;9.03;;
1775;SDS011;885;42.626;23.200;2023-03-01T05:25:36;8.83;;;7.93;;
1775;SDS011;885;42.626;23.200;2023-03-01T05:28:05;8.60;;;7.80;;
1775;SDS011;885;42.626;23.200;2023-03-01T05:30:33;10.17;;;9.17;;
1775;SDS011;885;42.626;23.200;2023-03-01T05:33:00;16.20;;;10.70;;
1775;SDS011;885;42.626;23.200;2023-03-01T05:35:28;11.57;;;10.47;;
1775;SDS011;885;42.626;23.200;2023-03-01T05:37:57;12.33;;;11.23;;
1775;SDS011;885;42.626;23.200;2023-03-01T05:40:24;11.63;;;10.60;;
1775;SDS011;885;42.626;23.200;2023-03-01T05:42:55;12.83;;;10.60;;
1775;SDS011;885;42.626;23.200;2023-03-01T05:45:23;11.60;;;9.60;;
1775;SDS011;885;42.626;23.200;2023-03-01T05:47:50;11.60;;;10.40;;
1775;SDS011;885;42.626;23.200;2023-03-01T05:50:18;13.20;;;10.60;;
1775;SDS011;885;42.626;23.200;2023-03-01T05:52:48;11.90;;;10.70;;
1775;SDS011;885;42.626;23.200;2023-03-01T05:55:16;11.37;;;9.30;;
1775;SDS011;885;42.626;23.200;2023-03-01T05:57:44;10.20;;;8.73;;
1775;SDS011;885;42.626;23.200;2023-03-01T06:00:12;9.30;;;8.27;;
1775;SDS011;885;42.626;23.200;2023-03-01T06:02:45;11.60;;;10.50;;
1775;SDS011;885;42.626;23.200;2023-03-01T06:05:12;10.80;;;9.67;;
1775;SDS011;885;42.626;23.200;2023-03-01T06:07:39;10.43;;;9.00;;
1775;SDS011;885;42.626;23.200;2023-03-01T06:10:09;11.07;;;9.10;;
1775;SDS011;885;42.626;23.200;2023-03-01T06:12:38;10.80;;;9.70;;
1775;SDS011;885;42.626;23.200;2023-03-01T06:15:06;11.33;;;8.90;;
1775;SDS011;885;42.626;23.200;2023-03-01T06:17:35;9.97;;;8.70;;
1775;SDS011;885;42.626;23.200;2023-03-01T06:20:04;8.50;;;7.70;;
1775;SDS011;885;42.626;23.200;2023-03-01T06:22:32;9.13;;;7.70;;
1775;SDS011;885;42.626;23.200;2023-03-01T06:24:59;8.57;;;7.60;;
1775;SDS011;885;42.626;23.200;2023-03-01T06:27:27;9.10;;;8.20;;
1775;SDS011;885;42.626;23.200;2023-03-01T06:29:54;11.67;;;7.10;;
1775;SDS011;885;42.626;23.200;2023-03-01T06:32:20;7.70;;;6.90;;
1775;SDS011;885;42.626;23.200;2023-03-01T06:34:47;9.10;;;8.20;;
1775;SDS011;885;42.626;23.200;2023-03-01T06:37:14;9.27;;;8.47;;
1775;SDS011;885;42.626;23.200;2023-03-01T06:39:40;9.57;;;8.60;;
1775;SDS011;885;42.626;23.200;2023-03-01T06:42:07;7.80;;;7.03;;
1775;SDS011;885;42.626;23.200;2023-03-01T06:44:36;9.70;;;8.90;;
1775;SDS011;885;42.626;23.200;2023-03-01T06:47:03;7.90;;;7.20;;
1775;SDS011;885;42.626;23.200;2023-03-01T06:49:30;8.20;;;7.30;;
1775;SDS011;885;42.626;23.200;2023-03-01T06:51:57;8.70;;;7.90;;
1775;SDS011;885;42.626;23.200;2023-03-01T06:54:24;8.63;;;7.40;;
1775;SDS011;885;42.626;23.200;2023-03-01T06:56:51;9.07;;;8.23;;
1775;SDS011;885;42.626;23.200;2023-03-01T06:59:17;7.50;;;6.90;;
1775;SDS011;885;42.626;23.200;2023-03-01T07:01:45;8.13;;;7.43;;
1775;SDS011;885;42.626;23.200;2023-03-01T07:04:12;8.10;;;7.40;;
1775;SDS011;885;42.626;23.200;2023-03-01T07:06:39;6.20;;;5.60;;
1775;SDS011;885;42.626;23.200;2023-03-01T07:09:06;7.23;;;6.57;;
1775;SDS011;885;42.626;23.200;2023-03-01T07:11:33;7.67;;;6.80;;
1775;SDS011;885;42.626;23.200;2023-03-01T07:14:00;8.00;;;7.30;;
1775;SDS011;885;42.626;23.200;2023-03-01T07:16:27;7.83;;;7.13;;
1775;SDS011;885;42.626;23.200;2023-03-01T07:18:55;18.60;;;9.10;;
1775;SDS011;885;42.626;23.200;2023-03-01T07:21:25;9.20;;;8.50;;
1775;SDS011;885;42.626;23.200;2023-03-01T07:23:52;8.10;;;6.70;;
1775;SDS011;885;42.626;23.200;2023-03-01T07:26:19;6.53;;;5.90;;
1775;SDS011;885;42.626;23.200;2023-03-01T07:28:45;6.33;;;5.73;;
1775;SDS011;885;42.626;23.200;2023-03-01T07:31:12;6.60;;;5.90;;
1775;SDS011;885;42.626;23.200;2023-03-01T07:33:39;6.07;;;5.47;;
1775;SDS011;885;42.626;23.200;2023-03-01T07:36:08;7.20;;;6.50;;
1775;SDS011;885;42.626;23.200;2023-03-01T07:38:35;7.87;;;7.17;;
1775;SDS011;885;42.626;23.200;2023-03-01T07:41:02;10.10;;;6.77;;
1775;SDS011;885;42.626;23.200;2023-03-01T07:43:30;9.47;;;7.27;;
1775;SDS011;885;42.626;23.200;2023-03-01T07:45:58;7.77;;;5.67;;
1775;SDS011;885;42.626;23.200;2023-03-01T07:48:25;7.67;;;6.10;;
1775;SDS011;885;42.626;23.200;2023-03-01T07:50:52;8.70;;;6.77;;
1775;SDS011;885;42.626;23.200;2023-03-01T07:53:20;11.23;;;10.10;;
1775;SDS011;885;42.626;23.200;2023-03-01T07:55:47;20.10;;;16.77;;
1775;SDS011;885;42.626;23.200;2023-03-01T07:58:14;11.57;;;9.20;;
1775;SDS011;885;42.626;23.200;2023-03-01T08:00:40;30.90;;;26.50;;
1775;SDS011;885;42.626;23.200;2023-03-01T08:03:07;23.33;;;19.87;;
1775;SDS011;885;42.626;23.200;2023-03-01T08:05:34;13.60;;;12.40;;
1775;SDS011;885;42.626;23.200;2023-03-01T08:08:01;9.00;;;8.13;;
1775;SDS011;885;42.626;23.200;2023-03-01T08:10:29;7.93;;;7.13;;
1775;SDS011;885;42.626;23.200;2023-03-01T08:12:55;9.60;;;8.60;;
1775;SDS011;885;42.626;23.200;2023-03-01T08:15:22;9.10;;;8.30;;
1775;SDS011;885;42.626;23.200;2023-03-01T08:17:49;8.37;;;7.03;;
1775;SDS011;885;42.626;23.200;2023-03-01T08:20:16;8.67;;;7.70;;
1775;SDS011;885;42.626;23.200;2023-03-01T08:22:43;7.73;;;6.20;;
1775;SDS011;885;42.626;23.200;2023-03-01T08:25:10;8.33;;;6.80;;
1775;SDS011;885;42.626;23.200;2023-03-01T08:27:39;8.23;;;7.00;;
1775;SDS011;885;42.626;23.200;2023-03-01T08:30:06;19.60;;;12.63;;
1775;SDS011;885;42.626;23.200;2023-03-01T08:32:35;7.67;;;6.97;;
1775;SDS011;885;42.626;23.200;2023-03-01T08:35:03;6.90;;;6.13;;
1775;SDS011;885;42.626;23.200;2023-03-01T08:37:31;7.93;;;5.30;;
1775;SDS011;885;42.626;23.200;2023-03-01T08:39:58;5.73;;;5.20;;
1775;SDS011;885;42.626;23.200;2023-03-01T08:42:25;5.47;;;4.97;;
1775;SDS011;885;42.626;23.200;2023-03-01T08:44:53;5.20;;;4.70;;
1775;SDS011;885;42.626;23.200;2023-03-01T08:47:20;7.00;;;4.57;;
1775;SDS011;885;42.626;23.200;2023-03-01T08:49:46;5.87;;;5.17;;
1775;SDS011;885;42.626;23.200;2023-03-01T08:52:15;6.03;;;5.43;;
1775;SDS011;885;42.626;23.200;2023-03-01T08:54:41;13.67;;;11.50;;
1775;SDS011;885;42.626;23.200;2023-03-01T08:57:08;9.17;;;7.77;;
1775;SDS011;885;42.626;23.200;2023-03-01T08:59:35;8.97;;;6.23;;
1775;SDS011;885;42.626;23.200;2023-03-01T09:02:03;7.93;;;5.27;;
1775;SDS011;885;42.626;23.200;2023-03-01T09:04:30;9.17;;;7.00;;
1775;SDS011;885;42.626;23.200;2023-03-01T09:06:58;16.03;;;11.77;;
1775;SDS011;885;42.626;23.200;2023-03-01T09:09:25;7.03;;;6.33;;
1775;SDS011;885;42.626;23.200;2023-03-01T09:11:51;7.97;;;5.50;;
1775;SDS011;885;42.626;23.200;2023-03-01T09:14:18;7.30;;;6.60;;
1775;SDS011;885;42.626;23.200;2023-03-01T09:16:45;5.80;;;5.30;;
1775;SDS011;885;42.626;23.200;2023-03-01T09:19:13;6.20;;;5.60;;
1775;SDS011;885;42.626;23.200;2023-03-01T09:21:40;5.73;;;5.23;;
1775;SDS011;885;42.626;23.200;2023-03-01T09:24:18;6.27;;;5.10;;
1775;SDS011;885;42.626;23.200;2023-03-01T09:26:45;6.13;;;5.53;;
1775;SDS011;885;42.626;23.200;2023-03-01T09:29:13;5.80;;;4.87;;
1775;SDS011;885;42.626;23.200;2023-03-01T09:31:40;7.87;;;5.77;;
1775;SDS011;885;42.626;23.200;2023-03-01T09:34:07;8.23;;;5.77;;
1775;SDS011;885;42.626;23.200;2023-03-01T09:36:36;5.73;;;5.13;;
1775;SDS011;885;42.626;23.200;2023-03-01T09:39:03;5.20;;;4.70;;
1775;SDS011;885;42.626;23.200;2023-03-01T09:41:42;5.50;;;4.57;;
1775;SDS011;885;42.626;23.200;2023-03-01T09:44:13;9.17;;;8.23;;
1775;SDS011;885;42.626;23.200;2023-03-01T09:46:48;25.40;;;18.07;;
1775;SDS011;885;42.626;23.200;2023-03-01T09:49:15;6.97;;;6.23;;
1775;SDS011;885;42.626;23.200;2023-03-01T09:51:47;6.97;;;5.03;;
1775;SDS011;885;42.626;23.200;2023-03-01T09:54:21;5.20;;;4.70;;
1775;SDS011;885;42.626;23.200;2023-03-01T09:56:52;6.93;;;6.27;;
1775;SDS011;885;42.626;23.200;2023-03-01T09:59:26;4.50;;;4.00;;
1775;SDS011;885;42.626;23.200;2023-03-01T10:01:59;4.50;;;4.10;;
1775;SDS011;885;42.626;23.200;2023-03-01T10:04:38;4.70;;;4.20;;
1775;SDS011;885;42.626;23.200;2023-03-01T10:07:17;4.20;;;3.67;;
1775;SDS011;885;42.626;23.200;2023-03-01T10:09:53;4.03;;;3.63;;
1775;SDS011;885;42.626;23.200;2023-03-01T10:12:20;6.40;;;5.00;;
1775;SDS011;885;42.626;23.200;2023-03-01T10:14:54;5.43;;;4.93;;
1775;SDS011;885;42.626;23.200;2023-03-01T10:17:28;4.93;;;4.43;;
1775;SDS011;885;42.626;23.200;2023-03-01T10:20:10;4.47;;;4.07;;
1775;SDS011;885;42.626;23.200;2023-03-01T10:22:46;7.43;;;4.23;;
1775;SDS011;885;42.626;23.200;2023-03-01T10:25:17;3.87;;;3.50;;
1775;SDS011;885;42.626;23.200;2023-03-01T10:27:52;4.10;;;3.70;;
1775;SDS011;885;42.626;23.200;2023-03-01T10:30:21;7.63;;;5.07;;
1775;SDS011;885;42.626;23.200;2023-03-01T10:32:54;5.90;;;5.00;;
1775;SDS011;885;42.626;23.200;2023-03-01T10:35:23;7.80;;;7.00;;
1775;SDS011;885;42.626;23.200;2023-03-01T10:38:02;11.00;;;8.40;;
1775;SDS011;885;42.626;23.200;2023-03-01T10:40:30;7.37;;;6.67;;
1775;SDS011;885;42.626;23.200;2023-03-01T10:42:57;12.83;;;9.43;;
1775;SDS011;885;42.626;23.200;2023-03-01T10:45:30;8.73;;;7.60;;
1775;SDS011;885;42.626;23.200;2023-03-01T10:48:05;6.87;;;5.60;;
1775;SDS011;885;42.626;23.200;2023-03-01T10:50:37;7.47;;;6.10;;
1775;SDS011;885;42.626;23.200;2023-03-01T10:53:16;6.13;;;4.83;;
1775;SDS011;885;42.626;23.200;2023-03-01T10:55:55;5.80;;;5.20;;
1775;SDS011;885;42.626;23.200;2023-03-01T10:58:24;7.93;;;5.50;;
1775;SDS011;885;42.626;23.200;2023-03-01T11:00:51;5.77;;;5.20;;
1775;SDS011;885;42.626;23.200;2023-03-01T11:03:21;5.50;;;5.00;;
1775;SDS011;885;42.626;23.200;2023-03-01T11:05:54;8.17;;;6.93;;
1775;SDS011;885;42.626;23.200;2023-03-01T11:08:35;8.77;;;7.37;;
1775;SDS011;885;42.626;23.200;2023-03-01T11:11:13;7.00;;;6.30;;
1775;SDS011;885;42.626;23.200;2023-03-01T11:13:48;7.77;;;5.70;;
1775;SDS011;885;42.626;23.200;2023-03-01T11:16:22;8.57;;;6.30;;
1775;SDS011;885;42.626;23.200;2023-03-01T11:18:56;7.50;;;6.37;;
1775;SDS011;885;42.626;23.200;2023-03-01T11:21:25;6.30;;;5.70;;
1775;SDS011;885;42.626;23.200;2023-03-01T11:23:56;8.00;;;6.07;;
1775;SDS011;885;42.626;23.200;2023-03-01T11:26:26;7.20;;;6.10;;
1775;SDS011;885;42.626;23.200;2023-03-01T11:28:55;7.00;;;6.00;;
1775;SDS011;885;42.626;23.200;2023-03-01T11:31:26;8.50;;;6.77;;
1775;SDS011;885;42.626;23.200;2023-03-01T11:33:55;7.30;;;6.50;;
1775;SDS011;885;42.626;23.200;2023-03-01T11:36:28;7.70;;;6.47;;
1775;SDS011;885;42.626;23.200;2023-03-01T11:39:02;8.60;;;6.50;;
1775;SDS011;885;42.626;23.200;2023-03-01T11:41:32;7.40;;;6.30;;
1775;SDS011;885;42.626;23.200;2023-03-01T11:44:02;8.23;;;6.50;;
1775;SDS011;885;42.626;23.200;2023-03-01T11:46:44;10.70;;;7.70;;
1775;SDS011;885;42.626;23.200;2023-03-01T11:49:32;7.43;;;6.63;;
1775;SDS011;885;42.626;23.200;2023-03-01T11:52:09;7.03;;;5.97;;
1775;SDS011;885;42.626;23.200;2023-03-01T11:54:53;7.20;;;5.80;;
1775;SDS011;885;42.626;23.200;2023-03-01T11:57:41;6.13;;;5.50;;
1775;SDS011;885;42.626;23.200;2023-03-01T12:00:21;7.20;;;5.27;;
1775;SDS011;885;42.626;23.200;2023-03-01T12:08:52;7.07;;;6.33;;
1775;SDS011;885;42.626;23.200;2023-03-01T12:11:33;7.47;;;5.73;;
1775;SDS011;885;42.626;23.200;2023-03-01T12:14:14;7.10;;;6.40;;
1775;SDS011;885;42.626;23.200;2023-03-01T12:19:58;6.80;;;6.20;;
1775;SDS011;885;42.626;23.200;2023-03-01T12:22:37;6.43;;;5.70;;
1775;SDS011;885;42.626;23.200;2023-03-01T12:25:16;11.10;;;9.53;;
1775;SDS011;885;42.626;23.200;2023-03-01T12:27:58;10.87;;;9.60;;
1775;SDS011;885;42.626;23.200;2023-03-01T12:30:46;7.20;;;6.50;;
1775;SDS011;885;42.626;23.200;2023-03-01T12:33:29;9.87;;;7.03;;
1775;SDS011;885;42.626;23.200;2023-03-01T12:36:12;8.40;;;5.97;;
1775;SDS011;885;42.626;23.200;2023-03-01T12:38:56;7.30;;;6.03;;
1775;SDS011;885;42.626;23.200;2023-03-01T12:41:40;6.57;;;5.97;;
1775;SDS011;885;42.626;23.200;2023-03-01T12:44:23;6.10;;;5.50;;
1775;SDS011;885;42.626;23.200;2023-03-01T12:47:09;6.20;;;5.47;;
1775;SDS011;885;42.626;23.200;2023-03-01T12:49:44;5.10;;;4.60;;
1775;SDS011;885;42.626;23.200;2023-03-01T12:52:16;6.00;;;5.50;;
1775;SDS011;885;42.626;23.200;2023-03-01T12:54:49;10.13;;;9.13;;
1775;SDS011;885;42.626;23.200;2023-03-01T12:57:21;7.50;;;6.53;;
1775;SDS011;885;42.626;23.200;2023-03-01T13:00:05;7.60;;;6.77;;
1775;SDS011;885;42.626;23.200;2023-03-01T13:02:45;8.00;;;6.30;;
1775;SDS011;885;42.626;23.200;2023-03-01T13:05:19;6.23;;;5.60;;
1775;SDS011;885;42.626;23.200;2023-03-01T13:07:55;7.43;;;6.63;;
1775;SDS011;885;42.626;23.200;2023-03-01T13:10:30;6.40;;;5.00;;
1775;SDS011;885;42.626;23.200;2023-03-01T13:13:03;7.30;;;5.57;;
1775;SDS011;885;42.626;23.200;2023-03-01T13:15:40;8.00;;;7.20;;
1775;SDS011;885;42.626;23.200;2023-03-01T13:20:55;8.67;;;6.77;;
1775;SDS011;885;42.626;23.200;2023-03-01T13:23:24;7.83;;;7.03;;
1775;SDS011;885;42.626;23.200;2023-03-01T13:26:09;10.73;;;9.50;;
1775;SDS011;885;42.626;23.200;2023-03-01T13:32:04;8.83;;;7.63;;
1775;SDS011;885;42.626;23.200;2023-03-01T13:34:48;9.10;;;7.80;;
1775;SDS011;885;42.626;23.200;2023-03-01T13:37:27;8.80;;;7.60;;
1775;SDS011;885;42.626;23.200;2023-03-01T13:39:59;8.93;;;7.40;;
1775;SDS011;885;42.626;23.200;2023-03-01T13:42:31;7.50;;;6.80;;
1775;SDS011;885;42.626;23.200;2023-03-01T13:45:02;7.93;;;7.13;;
1775;SDS011;885;42.626;23.200;2023-03-01T13:47:32;10.20;;;7.90;;
1775;SDS011;885;42.626;23.200;2023-03-01T13:50:03;8.77;;;7.90;;
1775;SDS011;885;42.626;23.200;2023-03-01T13:52:36;7.90;;;7.10;;
1775;SDS011;885;42.626;23.200;2023-03-01T13:55:06;23.20;;;20.80;;
1775;SDS011;885;42.626;23.200;2023-03-01T13:57:44;16.90;;;7.20;;
1775;SDS011;885;42.626;23.200;2023-03-01T14:03:13;8.87;;;7.77;;
1775;SDS011;885;42.626;23.200;2023-03-01T14:05:41;7.10;;;6.40;;
1775;SDS011;885;42.626;23.200;2023-03-01T14:08:18;8.57;;;7.77;;
1775;SDS011;885;42.626;23.200;2023-03-01T14:10:51;9.00;;;8.20;;
1775;SDS011;885;42.626;23.200;2023-03-01T14:13:27;6.90;;;6.30;;
1775;SDS011;885;42.626;23.200;2023-03-01T14:16:10;8.43;;;6.70;;
1775;SDS011;885;42.626;23.200;2023-03-01T14:18:47;7.80;;;5.93;;
1775;SDS011;885;42.626;23.200;2023-03-01T14:21:22;7.17;;;6.47;;
1775;SDS011;885;42.626;23.200;2023-03-01T14:23:50;8.80;;;6.43;;
1775;SDS011;885;42.626;23.200;2023-03-01T14:26:19;9.00;;;6.47;;
1775;SDS011;885;42.626;23.200;2023-03-01T14:28:47;10.00;;;7.53;;
1775;SDS011;885;42.626;23.200;2023-03-01T14:34:16;10.73;;;8.03;;
1775;SDS011;885;42.626;23.200;2023-03-01T14:36:45;11.30;;;7.50;;
1775;SDS011;885;42.626;23.200;2023-03-01T14:39:16;7.63;;;6.60;;
1775;SDS011;885;42.626;23.200;2023-03-01T14:41:44;6.80;;;6.10;;
1775;SDS011;885;42.626;23.200;2023-03-01T14:44:12;6.30;;;5.70;;
1775;SDS011;885;42.626;23.200;2023-03-01T14:46:51;6.77;;;5.90;;
1775;SDS011;885;42.626;23.200;2023-03-01T14:49:22;8.37;;;6.77;;
1775;SDS011;885;42.626;23.200;2023-03-01T14:51:52;9.10;;;7.67;;
1775;SDS011;885;42.626;23.200;2023-03-01T14:54:24;7.67;;;6.77;;
1775;SDS011;885;42.626;23.200;2023-03-01T14:56:53;8.90;;;7.50;;
1775;SDS011;885;42.626;23.200;2023-03-01T14:59:24;7.37;;;6.50;;
1775;SDS011;885;42.626;23.200;2023-03-01T15:01:51;8.53;;;6.60;;
1775;SDS011;885;42.626;23.200;2023-03-01T15:04:22;9.17;;;6.90;;
1775;SDS011;885;42.626;23.200;2023-03-01T15:06:50;8.53;;;7.20;;
1775;SDS011;885;42.626;23.200;2023-03-01T15:09:18;9.23;;;7.10;;
1775;SDS011;885;42.626;23.200;2023-03-01T15:11:45;7.80;;;6.87;;
1775;SDS011;885;42.626;23.200;2023-03-01T15:14:25;11.10;;;8.80;;
1775;SDS011;885;42.626;23.200;2023-03-01T15:16:53;7.80;;;6.77;;
1775;SDS011;885;42.626;23.200;2023-03-01T15:19:19;9.40;;;7.37;;
1775;SDS011;885;42.626;23.200;2023-03-01T15:21:50;14.03;;;7.80;;
1775;SDS011;885;42.626;23.200;2023-03-01T15:24:19;10.40;;;7.80;;
1775;SDS011;885;42.626;23.200;2023-03-01T15:26:50;20.23;;;15.33;;
1775;SDS011;885;42.626;23.200;2023-03-01T15:29:21;17.67;;;13.07;;
1775;SDS011;885;42.626;23.200;2023-03-01T15:31:55;18.70;;;15.07;;
1775;SDS011;885;42.626;23.200;2023-03-01T15:34:26;17.20;;;15.50;;
1775;SDS011;885;42.626;23.200;2023-03-01T15:36:54;16.67;;;11.27;;
1775;SDS011;885;42.626;23.200;2023-03-01T15:39:30;17.97;;;12.37;;
1775;SDS011;885;42.626;23.200;2023-03-01T15:42:02;12.50;;;11.07;;
1775;SDS011;885;42.626;23.200;2023-03-01T15:44:30;10.57;;;8.50;;
1775;SDS011;885;42.626;23.200;2023-03-01T15:46:59;9.27;;;8.30;;